Hanseatic Scout — V2BM2 — position and weather

sailwx.info

Track history (hours):
 
Tides and Currents Weather Stations Pressure Air Temp Water Temp Dewpoint Dewpoint Depression Visibility Wind Speed Wind Dir Waves Ship Positions

Hanseatic Scout

Last reported at 2014-Dec-16 22:16 UTC. Time now 2014-Dec-18 15:24 UTC.
Position N 56°01' E 011°45'.

Length 89 m; draft 4.1 m.

Type: Ship (hazmat cat C). MMSI: 304867000.

Date/timePositionNaut miles runAvg speedWind from/ knotsBaromVisibWave heightAir tempDewpointWater temp
2014-Dec-16 22:16N 56°01' E 011°45'94 8.0
2014-Dec-16 10:33N 54°35' E 010°38'1111.4
2014-Dec-16 09:33N 54°30' E 010°21'1010.2
2014-Dec-16 08:34N 54°22' E 010°10'4 3.6
2014-Dec-16 07:33N 54°22' E 010°04'5 4.9
2014-Dec-16 06:33N 54°21' E 009°56'5 5.5
2014-Dec-16 05:33N 54°21' E 009°46'9 8.1
2014-Dec-16 04:30N 54°15' E 009°37'8 8.0
2014-Dec-16 03:31N 54°10' E 009°26'8 7.8
2014-Dec-16 02:33N 54°04' E 009°19'10 8.2
2014-Dec-16 01:17N 53°55' E 009°11'3 3.7
2014-Dec-16 00:33N 53°53' E 009°07'8 7.7
2014-Dec-15 23:33N 53°50' E 008°55'7 7.0
2014-Dec-15 22:34N 53°52' E 008°43'7 7.3
2014-Dec-15 21:33N 53°58' E 008°35'10 9.6
2014-Dec-15 20:33N 53°60' E 008°19'9 9.1
2014-Dec-15 19:33N 53°59' E 008°04'6 5.5
2014-Dec-15 18:33N 53°53' E 008°05'1010.5
2014-Dec-15 17:33N 53°44' E 008°14'1010.4
2014-Dec-15 16:33N 53°38' E 008°28'7 7.4
2014-Dec-15 15:33N 53°30' E 008°31'9 9.1
2014-Dec-15 14:33N 53°21' E 008°30'1 1.2
2014-Dec-15 13:33N 53°20' E 008°30'0 0.0
2014-Dec-15 12:33N 53°20' E 008°30'0 0.0
2014-Dec-15 11:30N 53°20' E 008°30'0 0.0
2014-Dec-15 10:30N 53°20' E 008°30'0 0.0
2014-Dec-15 09:33N 53°20' E 008°30'0 0.0
2014-Dec-15 08:33N 53°20' E 008°30'0 0.0
2014-Dec-15 07:33N 53°20' E 008°30'0 0.0
2014-Dec-15 06:33N 53°20' E 008°30'0 0.0
2014-Dec-15 05:33N 53°20' E 008°30'0 0.0
2014-Dec-15 04:33N 53°20' E 008°30'0 0.0
2014-Dec-15 03:30N 53°20' E 008°30'0 0.0
2014-Dec-15 02:33N 53°20' E 008°30'0 0.0
2014-Dec-15 01:33N 53°20' E 008°30'0 0.0
2014-Dec-15 00:33N 53°20' E 008°30'0 0.0
2014-Dec-14 23:33N 53°20' E 008°30'0 0.0
2014-Dec-14 22:33N 53°20' E 008°30'0 0.0
2014-Dec-14 21:33N 53°20' E 008°30'6 6.1
2014-Dec-14 20:33N 53°26' E 008°29'7 6.9
2014-Dec-14 19:33N 53°33' E 008°34'9 8.7
2014-Dec-14 18:33N 53°39' E 008°24'10 9.5
2014-Dec-14 17:33N 53°45' E 008°12'10 9.9
2014-Dec-14 16:33N 53°51' E 007°58'10 9.7
2014-Dec-14 15:33N 53°53' E 007°42'4811.0
2014-Dec-14 11:12N 53°44' E 006°22'711.3
2014-Dec-14 10:33N 53°42' E 006°11'1111.1
2014-Dec-14 09:33N 53°39' E 005°53'1110.7
2014-Dec-14 08:33N 53°36' E 005°35'1010.4
2014-Dec-14 07:33N 53°32' E 005°19'10 9.7
2014-Dec-14 06:33N 53°29' E 005°04'9 9.4
2014-Dec-14 05:33N 53°25' E 004°49'9 8.8
2014-Dec-14 04:33N 53°19' E 004°39'11 9.0
2014-Dec-14 03:24N 53°09' E 004°31'8 9.2
2014-Dec-14 02:33N 53°02' E 004°25'9 9.1
2014-Dec-14 01:33N 52°54' E 004°18'9 9.3
2014-Dec-14 00:33N 52°46' E 004°11'10 9.7
2014-Dec-13 23:33N 52°39' E 003°60'1010.2
2014-Dec-13 22:33N 52°32' E 003°47'4310.7
2014-Dec-13 18:33N 51°52' E 003°22'10 9.9
2014-Dec-13 17:32N 51°42' E 003°18'9 9.7
2014-Dec-13 16:33N 51°34' E 003°25'9 9.3
2014-Dec-13 15:33N 51°27' E 003°34'7 6.7
2014-Dec-13 14:33N 51°23' E 003°43'5 5.2
2014-Dec-13 13:34N 51°20' E 003°49'1 1.2
2014-Dec-13 12:33N 51°19' E 003°50'0 0.0
2014-Dec-13 11:33N 51°19' E 003°50'0 0.0
2014-Dec-13 10:31N 51°19' E 003°50'0 0.0
2014-Dec-13 09:31N 51°19' E 003°50'0 0.0
2014-Dec-13 08:31N 51°19' E 003°50'0 0.0
2014-Dec-13 07:31N 51°19' E 003°50'0 0.0
2014-Dec-13 06:31N 51°19' E 003°50'0 0.0
2014-Dec-13 05:31N 51°19' E 003°50'0 0.0
2014-Dec-13 04:31N 51°19' E 003°50'0 0.0
2014-Dec-13 03:31N 51°19' E 003°50'0 0.0
2014-Dec-13 02:31N 51°19' E 003°50'0 0.0
2014-Dec-13 01:28N 51°19' E 003°50'0 0.0
2014-Dec-13 00:31N 51°19' E 003°50'0 0.0
2014-Dec-12 23:28N 51°19' E 003°50'0 0.0
2014-Dec-12 22:28N 51°19' E 003°50'0 0.0
2014-Dec-12 21:31N 51°19' E 003°50'0 0.0
2014-Dec-12 20:31N 51°19' E 003°50'0 0.0
2014-Dec-12 19:31N 51°19' E 003°50'0 0.0
2014-Dec-12 18:32N 51°19' E 003°50'0 0.0
2014-Dec-12 17:31N 51°19' E 003°50'0 0.0
2014-Dec-12 16:31N 51°19' E 003°50'0 0.0
2014-Dec-12 15:31N 51°19' E 003°50'0 0.0
2014-Dec-12 14:31N 51°19' E 003°50'0 0.0
2014-Dec-12 13:32N 51°19' E 003°50'0 0.0
2014-Dec-12 12:31N 51°19' E 003°50'0 0.0
2014-Dec-12 11:31N 51°19' E 003°50'0 0.0
2014-Dec-12 10:32N 51°19' E 003°50'0 0.0
2014-Dec-12 09:31N 51°19' E 003°50'0 0.0
2014-Dec-12 08:31N 51°19' E 003°50'0 0.0
2014-Dec-12 07:32N 51°19' E 003°50'0 0.0
2014-Dec-12 06:31N 51°19' E 003°50'0 0.0
2014-Dec-12 05:31N 51°19' E 003°50'0 0.0
2014-Dec-12 04:31N 51°19' E 003°50'0 0.0
2014-Dec-12 03:31N 51°19' E 003°50'0 0.0
2014-Dec-12 02:31N 51°19' E 003°50'1 0.8
2014-Dec-12 01:34N 51°19' E 003°49'2 2.1
2014-Dec-12 00:33N 51°21' E 003°48'6 6.5
2014-Dec-11 23:34N 51°26' E 003°41'8 7.9
2014-Dec-11 22:33N 51°25' E 003°28'9 8.5
2014-Dec-11 21:33N 51°25' E 003°14'9 8.4
2014-Dec-11 20:32N 51°24' E 003°01'9 9.6
2014-Dec-11 19:33N 51°22' E 002°46'10 9.3
2014-Dec-11 18:32N 51°22' E 002°31'5 5.4
2014-Dec-11 17:32N 51°20' E 002°23'7 7.6
2014-Dec-11 16:32N 51°16' E 002°13'1211.9
2014-Dec-11 15:33N 51°10' E 001°57'1212.3
2014-Dec-11 14:33N 51°02' E 001°42'1212.4
2014-Dec-11 13:33N 50°52' E 001°29'  
Track history (hours):
 
Tides and Currents Weather Stations Pressure Air Temp Water Temp Dewpoint Dewpoint Depression Visibility Wind Speed Wind Dir Waves Ship Positions

Hanseatic Scout

Last reported at 2014-Dec-16 22:16 UTC. Time now 2014-Dec-18 15:24 UTC.
Position N 56°01' E 011°45'.

Length 89 m; draft 4.1 m.

Type: Ship (hazmat cat C). MMSI: 304867000.

Date/timePositionNaut miles runAvg speedWind from/ knotsBaromVisibWave heightAir tempDewpointWater temp
2014-Dec-16 22:16N 56°01' E 011°45'94 8.0
2014-Dec-16 10:33N 54°35' E 010°38'1111.4
2014-Dec-16 09:33N 54°30' E 010°21'1010.2
2014-Dec-16 08:34N 54°22' E 010°10'4 3.6
2014-Dec-16 07:33N 54°22' E 010°04'5 4.9
2014-Dec-16 06:33N 54°21' E 009°56'5 5.5
2014-Dec-16 05:33N 54°21' E 009°46'9 8.1
2014-Dec-16 04:30N 54°15' E 009°37'8 8.0
2014-Dec-16 03:31N 54°10' E 009°26'8 7.8
2014-Dec-16 02:33N 54°04' E 009°19'10 8.2
2014-Dec-16 01:17N 53°55' E 009°11'3 3.7
2014-Dec-16 00:33N 53°53' E 009°07'8 7.7
2014-Dec-15 23:33N 53°50' E 008°55'7 7.0
2014-Dec-15 22:34N 53°52' E 008°43'7 7.3
2014-Dec-15 21:33N 53°58' E 008°35'10 9.6
2014-Dec-15 20:33N 53°60' E 008°19'9 9.1
2014-Dec-15 19:33N 53°59' E 008°04'6 5.5
2014-Dec-15 18:33N 53°53' E 008°05'1010.5
2014-Dec-15 17:33N 53°44' E 008°14'1010.4
2014-Dec-15 16:33N 53°38' E 008°28'7 7.4
2014-Dec-15 15:33N 53°30' E 008°31'9 9.1
2014-Dec-15 14:33N 53°21' E 008°30'1 1.2
2014-Dec-15 13:33N 53°20' E 008°30'0 0.0
2014-Dec-15 12:33N 53°20' E 008°30'0 0.0
2014-Dec-15 11:30N 53°20' E 008°30'0 0.0
2014-Dec-15 10:30N 53°20' E 008°30'0 0.0
2014-Dec-15 09:33N 53°20' E 008°30'0 0.0
2014-Dec-15 08:33N 53°20' E 008°30'0 0.0
2014-Dec-15 07:33N 53°20' E 008°30'0 0.0
2014-Dec-15 06:33N 53°20' E 008°30'0 0.0
2014-Dec-15 05:33N 53°20' E 008°30'0 0.0
2014-Dec-15 04:33N 53°20' E 008°30'0 0.0
2014-Dec-15 03:30N 53°20' E 008°30'0 0.0
2014-Dec-15 02:33N 53°20' E 008°30'0 0.0
2014-Dec-15 01:33N 53°20' E 008°30'0 0.0
2014-Dec-15 00:33N 53°20' E 008°30'0 0.0
2014-Dec-14 23:33N 53°20' E 008°30'0 0.0
2014-Dec-14 22:33N 53°20' E 008°30'0 0.0
2014-Dec-14 21:33N 53°20' E 008°30'6 6.1
2014-Dec-14 20:33N 53°26' E 008°29'7 6.9
2014-Dec-14 19:33N 53°33' E 008°34'9 8.7
2014-Dec-14 18:33N 53°39' E 008°24'10 9.5
2014-Dec-14 17:33N 53°45' E 008°12'10 9.9
2014-Dec-14 16:33N 53°51' E 007°58'10 9.7
2014-Dec-14 15:33N 53°53' E 007°42'4811.0
2014-Dec-14 11:12N 53°44' E 006°22'711.3
2014-Dec-14 10:33N 53°42' E 006°11'1111.1
2014-Dec-14 09:33N 53°39' E 005°53'1110.7
2014-Dec-14 08:33N 53°36' E 005°35'1010.4
2014-Dec-14 07:33N 53°32' E 005°19'10 9.7
2014-Dec-14 06:33N 53°29' E 005°04'9 9.4
2014-Dec-14 05:33N 53°25' E 004°49'9 8.8
2014-Dec-14 04:33N 53°19' E 004°39'11 9.0
2014-Dec-14 03:24N 53°09' E 004°31'8 9.2
2014-Dec-14 02:33N 53°02' E 004°25'9 9.1
2014-Dec-14 01:33N 52°54' E 004°18'9 9.3
2014-Dec-14 00:33N 52°46' E 004°11'10 9.7
2014-Dec-13 23:33N 52°39' E 003°60'1010.2
2014-Dec-13 22:33N 52°32' E 003°47'4310.7
2014-Dec-13 18:33N 51°52' E 003°22'10 9.9
2014-Dec-13 17:32N 51°42' E 003°18'9 9.7
2014-Dec-13 16:33N 51°34' E 003°25'9 9.3
2014-Dec-13 15:33N 51°27' E 003°34'7 6.7
2014-Dec-13 14:33N 51°23' E 003°43'5 5.2
2014-Dec-13 13:34N 51°20' E 003°49'1 1.2
2014-Dec-13 12:33N 51°19' E 003°50'0 0.0
2014-Dec-13 11:33N 51°19' E 003°50'0 0.0
2014-Dec-13 10:31N 51°19' E 003°50'0 0.0
2014-Dec-13 09:31N 51°19' E 003°50'0 0.0
2014-Dec-13 08:31N 51°19' E 003°50'0 0.0
2014-Dec-13 07:31N 51°19' E 003°50'0 0.0
2014-Dec-13 06:31N 51°19' E 003°50'0 0.0
2014-Dec-13 05:31N 51°19' E 003°50'0 0.0
2014-Dec-13 04:31N 51°19' E 003°50'0 0.0
2014-Dec-13 03:31N 51°19' E 003°50'0 0.0
2014-Dec-13 02:31N 51°19' E 003°50'0 0.0
2014-Dec-13 01:28N 51°19' E 003°50'0 0.0
2014-Dec-13 00:31N 51°19' E 003°50'0 0.0
2014-Dec-12 23:28N 51°19' E 003°50'0 0.0
2014-Dec-12 22:28N 51°19' E 003°50'0 0.0
2014-Dec-12 21:31N 51°19' E 003°50'0 0.0
2014-Dec-12 20:31N 51°19' E 003°50'0 0.0
2014-Dec-12 19:31N 51°19' E 003°50'0 0.0
2014-Dec-12 18:32N 51°19' E 003°50'0 0.0
2014-Dec-12 17:31N 51°19' E 003°50'0 0.0
2014-Dec-12 16:31N 51°19' E 003°50'0 0.0
2014-Dec-12 15:31N 51°19' E 003°50'0 0.0
2014-Dec-12 14:31N 51°19' E 003°50'0 0.0
2014-Dec-12 13:32N 51°19' E 003°50'0 0.0
2014-Dec-12 12:31N 51°19' E 003°50'0 0.0
2014-Dec-12 11:31N 51°19' E 003°50'0 0.0
2014-Dec-12 10:32N 51°19' E 003°50'0 0.0
2014-Dec-12 09:31N 51°19' E 003°50'0 0.0
2014-Dec-12 08:31N 51°19' E 003°50'0 0.0
2014-Dec-12 07:32N 51°19' E 003°50'0 0.0
2014-Dec-12 06:31N 51°19' E 003°50'0 0.0
2014-Dec-12 05:31N 51°19' E 003°50'0 0.0
2014-Dec-12 04:31N 51°19' E 003°50'0 0.0
2014-Dec-12 03:31N 51°19' E 003°50'0 0.0
2014-Dec-12 02:31N 51°19' E 003°50'1 0.8
2014-Dec-12 01:34N 51°19' E 003°49'2 2.1
2014-Dec-12 00:33N 51°21' E 003°48'6 6.5
2014-Dec-11 23:34N 51°26' E 003°41'8 7.9
2014-Dec-11 22:33N 51°25' E 003°28'9 8.5
2014-Dec-11 21:33N 51°25' E 003°14'9 8.4
2014-Dec-11 20:32N 51°24' E 003°01'9 9.6
2014-Dec-11 19:33N 51°22' E 002°46'10 9.3
2014-Dec-11 18:32N 51°22' E 002°31'5 5.4
2014-Dec-11 17:32N 51°20' E 002°23'7 7.6
2014-Dec-11 16:32N 51°16' E 002°13'1211.9
2014-Dec-11 15:33N 51°10' E 001°57'1212.3
2014-Dec-11 14:33N 51°02' E 001°42'1212.4
2014-Dec-11 13:33N 50°52' E 001°29'  

Dump ship's entire track history